Time;durP1;ratioP1;P1;durP2;ratioP2;P2;SDS_P1;SDS_P2;PMS_P1;PMS_P2;Temp;Humidity;BMP_temperature;BMP_pressure;BME280_temperature;BME280_humidity;BME280_pressure;Samples;Min_cycle;Max_cycle;Signal;HPM_P1;HPM_P2
2023/04/10 00:00:31;;;;;;;1.60;0.60;;;17.90;66.40;;;;;;5045735;28;20037;-74
2023/04/10 00:03:02;;;;;;;0.43;0.40;;;17.90;66.50;;;;;;5063033;28;20032;-75
2023/04/10 00:05:28;;;;;;;0.35;0.30;;;17.90;66.60;;;;;;5062439;28;20109;-75
2023/04/10 00:07:54;;;;;;;0.45;0.38;;;17.90;66.50;;;;;;5063488;28;20044;-74
2023/04/10 00:10:20;;;;;;;0.40;0.40;;;17.90;66.40;;;;;;5048755;28;20056;-74
2023/04/10 00:12:45;;;;;;;0.50;0.50;;;17.90;66.50;;;;;;5063965;28;20138;-75
2023/04/10 00:15:11;;;;;;;0.40;0.40;;;17.90;66.40;;;;;;5066503;28;20127;-74
2023/04/10 00:17:38;;;;;;;0.43;0.38;;;17.90;66.50;;;;;;5063278;28;20063;-74
2023/04/10 00:20:03;;;;;;;0.35;0.35;;;17.80;66.50;;;;;;5064878;28;20059;-74
2023/04/10 00:22:29;;;;;;;0.85;0.50;;;17.80;66.40;;;;;;5047148;28;20036;-74
2023/04/10 00:24:55;;;;;;;0.35;0.35;;;17.80;66.40;;;;;;5048617;28;20472;-74
2023/04/10 00:27:20;;;;;;;0.30;0.30;;;17.80;67.30;;;;;;5064578;28;20607;-74
2023/04/10 00:29:46;;;;;;;0.40;0.30;;;17.80;66.30;;;;;;5062087;28;20040;-74
2023/04/10 00:32:11;;;;;;;0.40;0.40;;;17.80;66.50;;;;;;5062548;28;20032;-74
2023/04/10 00:34:37;;;;;;;0.50;0.50;;;17.80;66.30;;;;;;5063341;28;20036;-74
2023/04/10 00:37:03;;;;;;;0.50;0.50;;;17.80;67.10;;;;;;5063858;28;20044;-74
2023/04/10 00:39:28;;;;;;;0.40;0.40;;;17.80;66.40;;;;;;5064623;28;20043;-74
2023/04/10 00:41:54;;;;;;;0.40;0.40;;;17.80;66.30;;;;;;5062543;28;20486;-74
2023/04/10 00:44:19;;;;;;;0.40;0.40;;;17.80;66.40;;;;;;5065062;28;20064;-75
2023/04/10 00:46:45;;;;;;;0.30;0.30;;;17.80;66.40;;;;;;5046353;28;20047;-75
2023/04/10 00:49:11;;;;;;;0.40;0.40;;;17.80;66.40;;;;;;5031806;28;20119;-77
2023/04/10 00:51:36;;;;;;;0.30;0.30;;;17.80;66.40;;;;;;5028010;28;20449;-77
2023/04/10 00:54:02;;;;;;;0.57;0.55;;;17.80;66.50;;;;;;5046383;28;20073;-77
2023/04/10 00:56:30;;;;;;;0.40;0.40;;;17.80;66.50;;;;;;5029629;28;20444;-77
2023/04/10 00:58:55;;;;;;;0.40;0.40;;;17.80;66.50;;;;;;5046502;28;20051;-76
2023/04/10 01:01:21;;;;;;;0.57;0.50;;;17.80;66.60;;;;;;5047470;28;20044;-76
2023/04/10 01:03:46;;;;;;;0.30;0.30;;;17.80;66.50;;;;;;5063444;28;20067;-76
2023/04/10 01:06:27;;;;;;;0.30;0.30;;;17.80;66.60;;;;;;5030294;28;20128;-77
2023/04/10 01:09:13;;;;;;;0.40;0.40;;;17.80;66.50;;;;;;5046769;28;20047;-76
2023/04/10 01:11:45;;;;;;;0.40;0.40;;;17.80;66.50;;;;;;5046487;28;20110;-76
2023/04/10 01:14:46;;;;;;;0.50;0.50;;;17.80;66.60;;;;;;5040773;28;20044;-76
2023/04/10 01:17:27;;;;;;;0.40;0.40;;;17.80;66.50;;;;;;5045134;28;20078;-77
2023/04/10 01:20:22;;;;;;;0.22;0.22;;;17.80;66.60;;;;;;5046173;28;20048;-77
2023/04/10 01:23:25;;;;;;;0.43;0.43;;;17.80;66.50;;;;;;5047586;28;20032;-76
2023/04/10 01:26:02;;;;;;;0.30;0.30;;;17.80;66.60;;;;;;5061006;28;20105;-76
2023/04/10 01:28:46;;;;;;;0.40;0.38;;;17.80;66.50;;;;;;5046802;28;20036;-76
2023/04/10 01:31:14;;;;;;;0.35;0.30;;;17.80;66.50;;;;;;5065314;28;20066;-76
2023/04/10 01:33:45;;;;;;;0.32;0.32;;;17.70;66.50;;;;;;5030247;28;20047;-77
2023/04/10 01:36:11;;;;;;;0.40;0.40;;;17.70;66.60;;;;;;5030386;28;20057;-77
2023/04/10 01:38:36;;;;;;;0.30;0.30;;;17.70;66.70;;;;;;5030378;28;20102;-76
2023/04/10 01:41:02;;;;;;;0.52;0.52;;;17.70;66.60;;;;;;5044414;28;20105;-76
2023/04/10 01:43:28;;;;;;;0.50;0.45;;;17.70;66.70;;;;;;5042697;28;20053;-76
2023/04/10 01:45:53;;;;;;;1.30;0.30;;;17.70;66.70;;;;;;5044417;28;20059;-76
2023/04/10 01:48:19;;;;;;;0.32;0.32;;;17.70;66.80;;;;;;5030125;28;20048;-76
2023/04/10 01:50:45;;;;;;;0.82;0.40;;;17.70;66.50;;;;;;5046589;28;20037;-76
2023/04/10 01:53:11;;;;;;;0.40;0.40;;;17.70;66.50;;;;;;5030425;28;20055;-76
2023/04/10 01:55:37;;;;;;;0.30;0.30;;;17.70;67.30;;;;;;5045122;28;20044;-77
2023/04/10 01:58:03;;;;;;;0.30;0.30;;;17.70;66.50;;;;;;5044011;28;20397;-77
2023/04/10 02:00:29;;;;;;;0.40;0.40;;;17.70;66.50;;;;;;5046416;28;20040;-76
2023/04/10 02:02:57;;;;;;;0.50;0.50;;;17.70;66.60;;;;;;5061491;28;20045;-77
2023/04/10 02:05:23;;;;;;;1.40;0.38;;;17.70;66.50;;;;;;5046019;28;20049;-76
2023/04/10 02:08:04;;;;;;;0.35;0.35;;;17.70;66.70;;;;;;5043606;28;20044;-76
2023/04/10 02:10:53;;;;;;;0.50;0.50;;;17.70;66.50;;;;;;5029754;28;20113;-76
2023/04/10 02:13:20;;;;;;;0.32;0.32;;;17.70;66.50;;;;;;5047365;28;20517;-77
2023/04/10 02:15:46;;;;;;;0.40;0.40;;;17.70;66.60;;;;;;5049463;28;20594;-76
2023/04/10 02:18:12;;;;;;;0.30;0.30;;;17.70;66.70;;;;;;5048354;28;20497;-76
2023/04/10 02:20:38;;;;;;;0.40;0.40;;;17.70;66.60;;;;;;5033912;28;20044;-76
2023/04/10 02:23:04;;;;;;;0.50;0.40;;;17.70;66.60;;;;;;5031567;28;20405;-76
2023/04/10 02:25:33;;;;;;;0.35;0.35;;;17.70;66.50;;;;;;5049729;28;20044;-76
2023/04/10 02:28:06;;;;;;;0.38;0.38;;;17.70;66.60;;;;;;5065278;28;20631;-76
2023/04/10 02:30:32;;;;;;;0.50;0.40;;;17.70;66.60;;;;;;5064332;28;20890;-77
2023/04/10 02:32:57;;;;;;;0.40;0.40;;;17.70;66.60;;;;;;5047746;28;20044;-76
2023/04/10 02:35:23;;;;;;;0.30;0.30;;;17.70;66.80;;;;;;5066469;28;20493;-77
2023/04/10 02:37:49;;;;;;;0.32;0.32;;;17.70;66.70;;;;;;5067984;28;20087;-76
2023/04/10 02:40:15;;;;;;;0.50;0.50;;;17.70;66.60;;;;;;5050513;28;20052;-76
2023/04/10 02:42:41;;;;;;;0.40;0.40;;;17.70;66.70;;;;;;5049264;28;20117;-76
2023/04/10 02:45:07;;;;;;;0.38;0.38;;;17.70;66.60;;;;;;5048597;28;20576;-76
2023/04/10 02:47:33;;;;;;;0.50;0.50;;;17.70;66.80;;;;;;5032385;28;20127;-76
2023/04/10 02:49:59;;;;;;;0.22;0.22;;;17.60;66.60;;;;;;5048705;28;20150;-77
2023/04/10 02:52:24;;;;;;;0.45;0.45;;;17.60;66.70;;;;;;5068425;28;20488;-76
2023/04/10 02:54:50;;;;;;;0.32;0.32;;;17.70;66.90;;;;;;5069558;28;20044;-76
2023/04/10 02:57:16;;;;;;;0.30;0.30;;;17.60;66.70;;;;;;5048019;28;20033;-77
2023/04/10 02:59:42;;;;;;;0.38;0.38;;;17.70;66.90;;;;;;5050182;28;20128;-76
2023/04/10 03:02:07;;;;;;;0.45;0.45;;;17.70;66.70;;;;;;5042853;28;20506;-77
2023/04/10 03:04:33;;;;;;;0.30;0.30;;;17.60;66.70;;;;;;5029103;28;20094;-76
2023/04/10 03:06:59;;;;;;;0.30;0.30;;;17.60;66.70;;;;;;5042403;28;20068;-76
2023/04/10 03:09:25;;;;;;;0.32;0.32;;;17.60;66.80;;;;;;5028228;28;20055;-76
2023/04/10 03:11:50;;;;;;;0.50;0.50;;;17.60;66.90;;;;;;5029408;28;20406;-76
2023/04/10 03:14:16;;;;;;;0.40;0.40;;;17.60;66.70;;;;;;5045532;28;20045;-77
2023/04/10 03:16:42;;;;;;;0.30;0.30;;;17.60;66.80;;;;;;5008607;28;20045;-77
2023/04/10 03:19:07;;;;;;;0.45;0.45;;;17.60;66.80;;;;;;5017232;28;20048;-78
2023/04/10 03:21:33;;;;;;;0.50;0.50;;;17.70;66.80;;;;;;5043591;28;20616;-78
2023/04/10 03:23:59;;;;;;;0.38;0.38;;;17.60;66.80;;;;;;5044115;28;20044;-78
2023/04/10 03:26:25;;;;;;;0.30;0.30;;;17.60;66.60;;;;;;5045537;28;20044;-78
2023/04/10 03:28:51;;;;;;;0.47;0.47;;;17.60;66.70;;;;;;5044094;28;20494;-78
2023/04/10 03:31:16;;;;;;;0.50;0.50;;;17.60;66.70;;;;;;5027912;28;20433;-77
2023/04/10 03:33:42;;;;;;;0.40;0.40;;;17.60;66.70;;;;;;5044385;28;20124;-77
2023/04/10 03:36:08;;;;;;;0.50;0.50;;;17.60;66.80;;;;;;5033676;28;20052;-77
2023/04/10 03:38:33;;;;;;;0.60;0.60;;;17.60;66.80;;;;;;5045753;28;20048;-77
2023/04/10 03:40:59;;;;;;;0.50;0.50;;;17.60;66.90;;;;;;5043604;28;20048;-78
2023/04/10 03:43:24;;;;;;;0.55;0.40;;;17.60;66.90;;;;;;5051044;28;20056;-78
2023/04/10 03:45:50;;;;;;;0.35;0.35;;;17.60;67.60;;;;;;5032671;28;20379;-78
2023/04/10 03:48:16;;;;;;;0.35;0.35;;;17.60;66.70;;;;;;5025168;28;20052;-77
2023/04/10 03:50:42;;;;;;;0.40;0.40;;;17.60;66.80;;;;;;5046015;28;20040;-78
2023/04/10 03:53:08;;;;;;;0.40;0.40;;;17.60;66.70;;;;;;5047290;28;20037;-77
2023/04/10 03:55:33;;;;;;;0.30;0.30;;;17.60;66.80;;;;;;5036287;28;20037;-77
2023/04/10 03:57:59;;;;;;;0.40;0.40;;;17.60;66.80;;;;;;5015184;28;20523;-77
2023/04/10 04:00:26;;;;;;;0.30;0.30;;;17.60;66.80;;;;;;5045405;28;20044;-77
2023/04/10 04:02:52;;;;;;;0.50;0.50;;;17.60;66.80;;;;;;5025621;28;20081;-77
2023/04/10 04:05:18;;;;;;;0.30;0.30;;;17.60;66.80;;;;;;5024956;28;20132;-77
2023/04/10 04:07:44;;;;;;;0.40;0.40;;;17.60;66.80;;;;;;5044893;28;20206;-78
2023/04/10 04:10:09;;;;;;;0.40;0.40;;;17.50;66.70;;;;;;5008688;28;20041;-78
2023/04/10 04:12:35;;;;;;;0.50;0.50;;;17.60;66.80;;;;;;5044017;28;20514;-77
2023/04/10 04:15:00;;;;;;;0.50;0.50;;;17.50;66.70;;;;;;5044621;28;20041;-78
2023/04/10 04:17:26;;;;;;;0.40;0.40;;;17.60;66.70;;;;;;5044748;28;20132;-78
2023/04/10 04:19:52;;;;;;;0.88;0.70;;;17.60;66.80;;;;;;5026953;28;20033;-77
2023/04/10 04:22:17;;;;;;;0.60;0.60;;;17.60;66.70;;;;;;5053325;28;20174;-77
2023/04/10 04:24:43;;;;;;;0.50;0.50;;;17.50;66.70;;;;;;5044172;28;20037;-78
2023/04/10 04:27:09;;;;;;;0.50;0.50;;;17.50;66.70;;;;;;5042756;28;20056;-77
2023/04/10 04:29:34;;;;;;;0.68;0.68;;;17.50;66.70;;;;;;5045374;28;20041;-77
2023/04/10 04:32:00;;;;;;;0.40;0.40;;;17.60;66.80;;;;;;5010919;28;20055;-78
2023/04/10 04:34:25;;;;;;;0.43;0.40;;;17.60;66.80;;;;;;5045242;28;20790;-77
2023/04/10 04:36:51;;;;;;;0.50;0.50;;;17.50;66.70;;;;;;5028081;28;20120;-78
2023/04/10 04:39:16;;;;;;;0.43;0.43;;;17.50;66.80;;;;;;5025890;28;20045;-78
2023/04/10 04:41:42;;;;;;;0.52;0.52;;;17.50;66.80;;;;;;5030036;28;20045;-78
2023/04/10 04:44:08;;;;;;;0.40;0.40;;;17.50;66.80;;;;;;5037231;28;20666;-77
2023/04/10 04:46:34;;;;;;;0.40;0.40;;;17.50;66.80;;;;;;5040326;28;20045;-77
2023/04/10 04:48:59;;;;;;;0.50;0.50;;;17.50;66.80;;;;;;5036280;28;20045;-78
2023/04/10 04:51:25;;;;;;;0.55;0.55;;;17.50;66.80;;;;;;5039931;28;20494;-77
2023/04/10 04:53:51;;;;;;;0.50;0.50;;;17.50;66.80;;;;;;5040714;28;20033;-78
2023/04/10 04:56:17;;;;;;;0.52;0.52;;;17.50;66.80;;;;;;5039961;28;20048;-77
2023/04/10 04:58:42;;;;;;;0.40;0.40;;;17.50;66.90;;;;;;5037897;28;20049;-78
2023/04/10 05:01:08;;;;;;;0.50;0.50;;;17.50;66.80;;;;;;5034765;28;20755;-78
2023/04/10 05:03:34;;;;;;;0.50;0.50;;;17.50;66.90;;;;;;5036710;28;20037;-78
2023/04/10 05:05:59;;;;;;;0.50;0.50;;;17.50;66.80;;;;;;5038439;28;20520;-78
2023/04/10 05:08:25;;;;;;;0.55;0.55;;;17.50;66.80;;;;;;5039678;28;20414;-77
2023/04/10 05:10:51;;;;;;;0.32;0.32;;;17.50;66.80;;;;;;5036270;28;20081;-77
2023/04/10 05:13:16;;;;;;;0.60;0.60;;;17.50;66.90;;;;;;5032808;28;20045;-77
2023/04/10 05:15:43;;;;;;;0.47;0.47;;;17.50;66.80;;;;;;5033455;28;20446;-77
2023/04/10 05:18:09;;;;;;;0.70;0.70;;;17.50;66.80;;;;;;5039886;28;20174;-77
2023/04/10 05:20:35;;;;;;;0.50;0.50;;;17.50;66.90;;;;;;5035203;28;20167;-78
2023/04/10 05:23:00;;;;;;;0.60;0.60;;;17.50;66.90;;;;;;5036186;28;20048;-78
2023/04/10 05:25:26;;;;;;;0.52;0.52;;;17.50;66.90;;;;;;5036375;28;20037;-77
2023/04/10 05:27:51;;;;;;;0.30;0.30;;;17.50;66.90;;;;;;5038310;28;20471;-77
2023/04/10 05:30:17;;;;;;;0.50;0.50;;;17.50;67.00;;;;;;5039027;28;20045;-77
2023/04/10 05:32:44;;;;;;;0.30;0.30;;;17.50;66.90;;;;;;5038050;28;20620;-78
2023/04/10 05:35:10;;;;;;;0.40;0.40;;;17.50;66.90;;;;;;5032471;28;20030;-77
2023/04/10 05:37:36;;;;;;;0.38;0.38;;;17.50;66.90;;;;;;5035738;28;20044;-77
2023/04/10 05:40:02;;;;;;;0.65;0.40;;;17.40;66.90;;;;;;5032452;28;20057;-77
2023/04/10 05:42:27;;;;;;;0.47;0.47;;;17.50;67.00;;;;;;5038172;28;20567;-78
2023/04/10 05:44:53;;;;;;;0.50;0.50;;;17.40;66.90;;;;;;5035437;28;20037;-78
2023/04/10 05:47:19;;;;;;;0.50;0.50;;;17.40;66.90;;;;;;5031985;28;20037;-78
2023/04/10 05:49:44;;;;;;;0.50;0.50;;;17.40;66.90;;;;;;5037635;28;20162;-77
2023/04/10 05:52:10;;;;;;;0.45;0.45;;;17.40;66.90;;;;;;5041117;28;20071;-77
2023/04/10 05:54:35;;;;;;;0.45;0.40;;;17.40;66.90;;;;;;5044945;28;20048;-78
2023/04/10 05:57:01;;;;;;;0.40;0.40;;;17.40;67.00;;;;;;5044120;28;20413;-78
2023/04/10 05:59:27;;;;;;;0.57;0.57;;;17.40;66.90;;;;;;5037653;28;20048;-77
2023/04/10 06:01:52;;;;;;;0.40;0.40;;;17.40;66.90;;;;;;5039513;28;20052;-77
2023/04/10 06:04:20;;;;;;;0.47;0.47;;;17.40;66.90;;;;;;5040279;28;20522;-78
2023/04/10 06:06:45;;;;;;;0.32;0.32;;;17.40;66.90;;;;;;5040631;28;20084;-77
2023/04/10 06:09:11;;;;;;;0.50;0.50;;;17.40;66.90;;;;;;5040626;28;20072;-78
2023/04/10 06:11:36;;;;;;;0.40;0.40;;;17.40;66.90;;;;;;5038090;28;20048;-77
2023/04/10 06:14:02;;;;;;;0.30;0.30;;;17.40;67.00;;;;;;5038237;28;20140;-77
2023/04/10 06:16:27;;;;;;;0.40;0.40;;;17.40;67.00;;;;;;5036044;28;20046;-78
2023/04/10 06:18:53;;;;;;;0.30;0.30;;;17.40;66.90;;;;;;5039635;28;20568;-77
2023/04/10 06:21:19;;;;;;;0.47;0.47;;;17.40;67.00;;;;;;5022776;28;20045;-77
2023/04/10 06:23:44;;;;;;;0.45;0.45;;;17.40;67.00;;;;;;5038100;28;20572;-77
2023/04/10 06:26:10;;;;;;;0.50;0.50;;;17.40;67.00;;;;;;5034934;28;20594;-78
2023/04/10 06:28:36;;;;;;;0.60;0.40;;;17.40;67.00;;;;;;5037372;28;20037;-77
2023/04/10 06:31:02;;;;;;;0.47;0.47;;;17.40;67.00;;;;;;5039063;28;20044;-77
2023/04/10 06:33:28;;;;;;;0.50;0.50;;;17.40;68.00;;;;;;5041135;28;20039;-77
2023/04/10 06:35:54;;;;;;;0.50;0.50;;;17.40;67.00;;;;;;5039904;28;20068;-78
2023/04/10 06:38:20;;;;;;;0.30;0.30;;;17.40;67.00;;;;;;5033761;28;20069;-77
2023/04/10 06:40:45;;;;;;;0.50;0.50;;;17.40;66.90;;;;;;5040370;28;20668;-78
2023/04/10 06:43:11;;;;;;;0.52;0.52;;;17.40;67.00;;;;;;5036369;28;20041;-78
2023/04/10 06:45:37;;;;;;;0.30;0.30;;;17.40;67.00;;;;;;5040151;28;20057;-77
2023/04/10 06:48:03;;;;;;;0.40;0.40;;;17.40;67.00;;;;;;5042448;28;20425;-77
2023/04/10 06:50:28;;;;;;;0.50;0.50;;;17.40;66.90;;;;;;5033915;28;20048;-77
2023/04/10 06:52:55;;;;;;;0.50;0.40;;;17.40;67.00;;;;;;5033498;28;20502;-77
2023/04/10 06:55:20;;;;;;;0.40;0.40;;;17.40;67.00;;;;;;4999422;28;20098;-77
2023/04/10 06:57:46;;;;;;;0.50;0.50;;;17.40;67.10;;;;;;5027161;28;20048;-78
2023/04/10 07:00:12;;;;;;;0.40;0.40;;;17.40;67.00;;;;;;5024307;28;20037;-76
2023/04/10 07:02:38;;;;;;;0.40;0.40;;;17.40;67.00;;;;;;5009894;28;20099;-76
2023/04/10 07:05:03;;;;;;;0.50;0.50;;;17.40;67.00;;;;;;4993884;28;20056;-76
2023/04/10 07:07:30;;;;;;;0.35;0.35;;;17.40;67.00;;;;;;5029021;28;20037;-76
2023/04/10 07:09:56;;;;;;;0.40;0.40;;;17.40;67.50;;;;;;5026441;28;20045;-76
2023/04/10 07:12:22;;;;;;;0.60;0.60;;;17.40;66.90;;;;;;5010067;28;20101;-76
2023/04/10 07:14:48;;;;;;;0.40;0.40;;;17.40;66.90;;;;;;5023567;28;20052;-76
2023/04/10 07:17:13;;;;;;;0.38;0.38;;;17.40;66.90;;;;;;5025421;28;20053;-76
2023/04/10 07:19:39;;;;;;;0.50;0.50;;;17.40;66.80;;;;;;5026072;28;20480;-76
2023/04/10 07:22:04;;;;;;;0.30;0.30;;;17.50;66.90;;;;;;5025808;28;20056;-76
2023/04/10 07:24:31;;;;;;;0.50;0.50;;;17.40;66.80;;;;;;5021340;28;20108;-76
2023/04/10 07:26:57;;;;;;;0.50;0.50;;;17.40;66.80;;;;;;5023314;28;20052;-76
2023/04/10 07:29:22;;;;;;;0.57;0.57;;;17.40;66.80;;;;;;4999835;28;20409;-76
2023/04/10 07:31:48;;;;;;;0.65;0.45;;;17.50;66.80;;;;;;5023818;28;20726;-76
2023/04/10 07:34:14;;;;;;;0.52;0.50;;;17.40;66.80;;;;;;5014111;28;20078;-76
2023/04/10 07:36:39;;;;;;;0.50;0.50;;;17.50;66.80;;;;;;5010435;28;20040;-77
2023/04/10 07:39:05;;;;;;;0.43;0.43;;;17.40;66.70;;;;;;5033887;28;20139;-78
2023/04/10 07:41:30;;;;;;;0.38;0.38;;;17.40;66.90;;;;;;5022787;28;20076;-77
2023/04/10 07:43:56;;;;;;;0.50;0.50;;;17.50;67.00;;;;;;5020005;28;20053;-76
2023/04/10 07:46:21;;;;;;;0.40;0.40;;;17.50;66.80;;;;;;5025239;28;20057;-77
2023/04/10 07:48:48;;;;;;;0.73;0.45;;;17.50;67.10;;;;;;5025640;28;20227;-77
2023/04/10 07:51:14;;;;;;;0.40;0.40;;;17.50;67.10;;;;;;4988250;28;20052;-77
2023/04/10 07:53:39;;;;;;;0.63;0.50;;;17.50;67.10;;;;;;5025602;28;20057;-77
2023/04/10 07:56:05;;;;;;;0.60;0.60;;;17.50;67.80;;;;;;4673426;28;10000320;-76
2023/04/10 07:58:32;;;;;;;1.05;0.55;;;17.50;67.40;;;;;;5021339;28;20060;-76
2023/04/10 08:00:57;;;;;;;0.32;0.32;;;17.50;67.70;;;;;;5016535;28;20049;-76
2023/04/10 08:03:23;;;;;;;0.40;0.35;;;17.50;67.40;;;;;;5016022;28;20099;-77
2023/04/10 08:05:48;;;;;;;0.40;0.40;;;17.50;67.80;;;;;;5028928;28;20474;-77
2023/04/10 08:08:15;;;;;;;0.50;0.50;;;17.50;67.80;;;;;;5032655;28;20714;-76
2023/04/10 08:10:40;;;;;;;0.57;0.57;;;17.50;67.80;;;;;;5031359;28;20041;-77
2023/04/10 08:13:06;;;;;;;1.30;0.57;;;17.50;67.80;;;;;;5025820;28;20049;-78
2023/04/10 08:15:32;;;;;;;0.50;0.50;;;17.50;67.70;;;;;;5028583;28;20080;-78
2023/04/10 08:17:57;;;;;;;0.30;0.30;;;17.50;67.90;;;;;;5023580;28;20406;-77
2023/04/10 08:20:23;;;;;;;0.85;0.60;;;17.60;67.90;;;;;;5032740;28;20048;-77
2023/04/10 08:22:48;;;;;;;0.50;0.50;;;17.60;68.00;;;;;;5037742;28;20087;-77
2023/04/10 08:25:14;;;;;;;0.70;0.40;;;17.60;68.10;;;;;;5036872;28;20033;-77
2023/04/10 08:27:40;;;;;;;0.68;0.50;;;17.60;68.20;;;;;;5024149;28;20033;-78
2023/04/10 08:30:06;;;;;;;0.57;0.52;;;17.60;68.00;;;;;;5045199;28;20133;-77
2023/04/10 08:32:31;;;;;;;1.15;0.50;;;17.60;68.00;;;;;;5042147;28;20119;-77
2023/04/10 08:34:57;;;;;;;0.50;0.50;;;17.60;68.10;;;;;;5047090;28;20124;-76
2023/04/10 08:37:25;;;;;;;0.73;0.47;;;17.60;68.10;;;;;;5041230;28;20049;-76
2023/04/10 08:39:50;;;;;;;0.35;0.35;;;17.60;68.10;;;;;;5028647;28;20086;-75
2023/04/10 08:42:16;;;;;;;0.40;0.40;;;17.60;68.10;;;;;;5028528;28;20041;-75
2023/04/10 08:44:41;;;;;;;0.55;0.50;;;17.60;68.20;;;;;;5026137;28;20135;-76
2023/04/10 08:47:07;;;;;;;0.40;0.40;;;17.60;68.30;;;;;;5045126;28;20033;-76
2023/04/10 08:49:38;;;;;;;0.30;0.30;;;17.60;68.20;;;;;;5034220;28;20052;-76
2023/04/10 08:52:03;;;;;;;0.82;0.40;;;17.60;68.30;;;;;;5042187;28;20136;-76
2023/04/10 08:54:33;;;;;;;0.60;0.60;;;17.60;68.30;;;;;;5024885;28;20117;-78
2023/04/10 08:57:00;;;;;;;0.60;0.60;;;17.60;68.20;;;;;;5037592;28;20048;-79
2023/04/10 08:59:27;;;;;;;0.70;0.70;;;17.60;68.20;;;;;;5057992;28;20508;-78
2023/04/10 09:01:53;;;;;;;1.15;1.05;;;17.60;68.10;;;;;;5057437;28;20533;-80
2023/04/10 09:04:19;;;;;;;0.95;0.65;;;17.60;68.00;;;;;;5045644;28;20426;-79
2023/04/10 09:06:46;;;;;;;0.50;0.50;;;17.60;68.00;;;;;;4694946;28;10001211;-79
2023/04/10 09:09:11;;;;;;;0.30;0.30;;;17.60;67.90;;;;;;5026485;28;20132;-79
2023/04/10 09:11:54;;;;;;;0.57;0.57;;;17.70;68.00;;;;;;5056570;28;20123;-79
2023/04/10 09:14:30;;;;;;;0.50;0.50;;;17.60;67.90;;;;;;5059922;28;20182;-78
2023/04/10 09:17:21;;;;;;;1.08;0.45;;;17.70;68.00;;;;;;5041202;28;20047;-79
2023/04/10 09:19:54;;;;;;;0.40;0.40;;;17.70;68.20;;;;;;5043167;28;20063;-81
2023/04/10 09:22:30;;;;;;;0.40;0.40;;;17.70;68.30;;;;;;5024922;28;20065;-79
2023/04/10 09:24:58;;;;;;;0.47;0.47;;;17.70;68.40;;;;;;5040348;28;20530;-79
2023/04/10 09:27:34;;;;;;;2.05;0.73;;;17.70;68.70;;;;;;5041593;28;20040;-78
2023/04/10 09:30:00;;;;;;;0.60;0.60;;;17.70;68.90;;;;;;5052752;28;20417;-79
2023/04/10 09:32:39;;;;;;;0.60;0.60;;;17.70;69.30;;;;;;5068304;28;20040;-80
2023/04/10 09:35:06;;;;;;;0.30;0.30;;;17.70;69.10;;;;;;5066063;28;20053;-79
2023/04/10 09:37:32;;;;;;;0.30;0.30;;;17.80;69.10;;;;;;5027400;28;20033;-78
2023/04/10 09:39:57;;;;;;;0.70;0.60;;;17.80;69.30;;;;;;5048581;28;20056;-81
2023/04/10 09:42:33;;;;;;;0.50;0.50;;;17.80;69.40;;;;;;5043029;28;20056;-80
2023/04/10 09:45:00;;;;;;;1.17;0.47;;;17.80;69.40;;;;;;5024134;28;20327;-81
2023/04/10 09:47:26;;;;;;;0.60;0.55;;;17.70;69.30;;;;;;5023743;28;20521;-80
2023/04/10 09:49:59;;;;;;;0.80;0.70;;;17.70;69.30;;;;;;5024814;28;20055;-81
2023/04/10 09:52:34;;;;;;;0.30;0.30;;;17.70;69.30;;;;;;5041519;28;20413;-81
2023/04/10 09:55:04;;;;;;;0.68;0.45;;;17.80;69.40;;;;;;5026141;28;20712;-81
2023/04/10 09:57:31;;;;;;;0.50;0.50;;;17.70;69.20;;;;;;5029140;28;20064;-82
2023/04/10 09:59:58;;;;;;;0.80;0.52;;;17.70;69.20;;;;;;5042561;28;20123;-79
2023/04/10 10:02:25;;;;;;;0.57;0.50;;;17.70;69.20;;;;;;5040867;28;20041;-77
2023/04/10 10:04:51;;;;;;;0.40;0.40;;;17.70;69.30;;;;;;5043785;28;20418;-77
2023/04/10 10:07:18;;;;;;;3.40;0.60;;;17.80;69.50;;;;;;5041777;28;20044;-78
2023/04/10 10:09:45;;;;;;;0.65;0.40;;;17.80;69.50;;;;;;5031194;28;20084;-80
2023/04/10 10:12:11;;;;;;;0.70;0.70;;;17.80;69.70;;;;;;4996314;28;20357;-77
2023/04/10 10:14:55;;;;;;;5.30;1.08;;;17.80;69.50;;;;;;5009264;28;20096;-78
2023/04/10 10:17:22;;;;;;;1.17;0.70;;;17.80;69.60;;;;;;5018909;28;20184;-80
2023/04/10 10:20:00;;;;;;;0.70;0.65;;;17.80;70.30;;;;;;5020091;28;20056;-77
2023/04/10 10:22:27;;;;;;;0.73;0.73;;;17.80;70.00;;;;;;5020758;28;20141;-78
2023/04/10 10:24:55;;;;;;;1.17;0.47;;;17.80;70.10;;;;;;5022029;28;20141;-77
2023/04/10 10:27:21;;;;;;;1.10;0.50;;;17.90;70.00;;;;;;5018387;28;20658;-80
2023/04/10 10:29:47;;;;;;;2.03;0.50;;;17.90;70.30;;;;;;5020133;28;20153;-78
2023/04/10 10:32:13;;;;;;;0.50;0.50;;;17.90;70.30;;;;;;5022961;28;20262;-78
2023/04/10 10:34:38;;;;;;;0.57;0.47;;;17.90;70.50;;;;;;5005943;28;21912;-78
2023/04/10 10:37:04;;;;;;;2.92;0.55;;;17.80;70.50;;;;;;5019557;28;20499;-78
2023/04/10 10:39:41;;;;;;;0.85;0.50;;;17.80;70.60;;;;;;5020085;28;20136;-78
2023/04/10 10:42:19;;;;;;;1.95;0.65;;;17.80;70.50;;;;;;5022848;28;20073;-79
2023/04/10 10:44:51;;;;;;;0.50;0.50;;;17.80;70.60;;;;;;5023106;28;20072;-80
2023/04/10 10:47:19;;;;;;;0.60;0.60;;;17.80;70.60;;;;;;4992117;28;20030;-78
2023/04/10 10:49:52;;;;;;;0.50;0.50;;;17.80;70.50;;;;;;4999460;28;20045;-79
2023/04/10 10:52:35;;;;;;;0.60;0.60;;;17.80;70.30;;;;;;5011054;28;20046;-78
2023/04/10 10:55:20;;;;;;;0.77;0.55;;;17.80;70.30;;;;;;5016932;28;20038;-78
2023/04/10 10:58:06;;;;;;;0.60;0.60;;;17.90;71.50;;;;;;4918431;28;10000975;-77
2023/04/10 11:00:58;;;;;;;0.77;0.77;;;17.90;70.50;;;;;;5024833;28;20263;-78
2023/04/10 11:03:23;;;;;;;1.20;0.70;;;17.90;71.10;;;;;;5004213;28;20049;-78
2023/04/10 11:05:53;;;;;;;2.45;0.80;;;17.90;71.30;;;;;;5012596;28;20045;-78
2023/04/10 11:08:32;;;;;;;2.20;0.98;;;18.00;72.30;;;;;;5011754;28;20045;-79
2023/04/10 11:11:07;;;;;;;1.40;1.10;;;18.00;72.50;;;;;;5039504;28;20144;-83
2023/04/10 11:13:37;;;;;;;0.40;0.40;;;18.00;72.50;;;;;;5072044;28;20045;-79
2023/04/10 11:16:04;;;;;;;1.98;0.60;;;18.00;71.70;;;;;;5060884;28;20070;-77
2023/04/10 11:18:44;;;;;;;1.85;0.60;;;18.00;71.50;;;;;;5072603;28;20532;-79
2023/04/10 11:21:14;;;;;;;0.90;0.80;;;18.00;71.20;;;;;;5042455;28;20045;-78
2023/04/10 11:23:49;;;;;;;1.70;0.80;;;18.00;70.80;;;;;;5061347;28;20190;-80
2023/04/10 11:26:42;;;;;;;0.63;0.52;;;18.00;70.60;;;;;;5061569;28;20047;-78
2023/04/10 11:29:16;;;;;;;0.63;0.40;;;18.00;70.70;;;;;;5058088;28;20028;-78
2023/04/10 11:31:53;;;;;;;0.98;0.60;;;18.00;70.70;;;;;;5059201;28;20044;-78
2023/04/10 11:34:19;;;;;;;1.02;0.57;;;18.00;70.50;;;;;;5043749;28;20048;-77
2023/04/10 11:36:44;;;;;;;0.73;0.38;;;18.00;70.70;;;;;;5026427;28;20075;-78
2023/04/10 11:39:18;;;;;;;0.85;0.43;;;18.00;70.50;;;;;;5059717;28;20528;-78
2023/04/10 11:41:51;;;;;;;0.40;0.40;;;18.00;70.30;;;;;;5055175;28;20061;-77
2023/04/10 11:44:30;;;;;;;0.82;0.68;;;18.00;70.20;;;;;;5040907;28;20045;-78
2023/04/10 11:46:56;;;;;;;0.45;0.45;;;18.00;70.20;;;;;;5017758;28;20042;-77
2023/04/10 11:49:28;;;;;;;0.57;0.57;;;18.00;70.10;;;;;;5033518;28;20518;-79
2023/04/10 11:51:53;;;;;;;1.13;0.50;;;18.00;70.00;;;;;;5019739;28;20029;-80
2023/04/10 11:54:20;;;;;;;0.60;0.60;;;18.00;69.90;;;;;;5028188;28;20075;-78
2023/04/10 11:57:02;;;;;;;0.40;0.40;;;18.00;69.70;;;;;;5036356;28;20053;-78
2023/04/10 11:59:28;;;;;;;0.50;0.50;;;18.10;69.70;;;;;;5032042;28;20037;-78
2023/04/10 12:02:08;;;;;;;1.35;0.68;;;18.10;69.70;;;;;;5035842;28;20033;-78
2023/04/10 12:04:33;;;;;;;0.60;0.60;;;18.10;69.80;;;;;;5034492;28;20029;-77
2023/04/10 12:06:59;;;;;;;0.93;0.85;;;18.10;69.90;;;;;;5030697;28;20048;-77
2023/04/10 12:09:26;;;;;;;0.60;0.50;;;18.10;69.90;;;;;;5035323;28;20622;-76
2023/04/10 12:11:58;;;;;;;2.50;0.50;;;18.10;69.90;;;;;;5035503;28;20053;-76
2023/04/10 12:14:36;;;;;;;1.80;0.60;;;18.10;69.80;;;;;;5034093;28;20053;-78
2023/04/10 12:17:03;;;;;;;0.63;0.63;;;18.10;69.90;;;;;;5030644;28;20067;-78
2023/04/10 12:19:29;;;;;;;2.67;1.05;;;18.10;69.80;;;;;;5017143;28;20045;-78
2023/04/10 12:21:55;;;;;;;0.40;0.40;;;18.10;69.80;;;;;;5021624;28;20045;-77
2023/04/10 12:24:40;;;;;;;0.75;0.50;;;18.10;69.80;;;;;;5033964;28;20044;-77
2023/04/10 12:27:05;;;;;;;0.50;0.50;;;18.10;69.80;;;;;;5034763;28;20480;-77
2023/04/10 12:29:31;;;;;;;0.50;0.50;;;18.10;69.70;;;;;;5033143;28;20579;-77
2023/04/10 12:31:57;;;;;;;0.82;0.65;;;18.00;69.70;;;;;;5034625;28;20128;-78
2023/04/10 12:34:22;;;;;;;0.50;0.50;;;18.10;69.80;;;;;;5031536;28;20102;-77
2023/04/10 12:36:51;;;;;;;0.60;0.60;;;18.10;69.60;;;;;;5030524;28;20103;-76
2023/04/10 12:39:23;;;;;;;0.65;0.50;;;18.10;69.50;;;;;;5034927;28;20055;-77
2023/04/10 12:41:49;;;;;;;2.45;0.70;;;18.10;69.40;;;;;;5031940;28;20122;-77
2023/04/10 12:44:15;;;;;;;0.88;0.50;;;18.10;69.30;;;;;;5034756;28;20415;-76
2023/04/10 12:46:41;;;;;;;0.57;0.57;;;18.10;69.30;;;;;;5035057;28;20044;-76
2023/04/10 12:49:13;;;;;;;0.50;0.50;;;18.10;69.30;;;;;;5032131;28;20052;-76